createdAt,value
2023-01-27T00:00:20.514Z,100716.23
2023-01-27T00:03:15.764Z,100718.80
2023-01-27T00:05:49.718Z,100717.55
2023-01-27T00:08:24.174Z,100714.31
2023-01-27T00:11:15.732Z,100710.20
2023-01-27T00:13:49.275Z,100709.09
2023-01-27T00:16:23.136Z,100711.34
2023-01-27T00:18:57.083Z,100717.96
2023-01-27T00:21:48.810Z,100721.35
2023-01-27T00:24:39.237Z,100722.56
2023-01-27T00:27:14.386Z,100723.58
2023-01-27T00:29:48.278Z,100725.61
2023-01-27T00:32:39.333Z,100724.51
2023-01-27T00:35:16.785Z,100726.44
2023-01-27T00:37:51.090Z,100729.52
2023-01-27T00:40:26.272Z,100727.96
2023-01-27T00:43:00.140Z,100723.98
2023-01-27T00:45:53.039Z,100728.95
2023-01-27T00:48:26.979Z,100725.48
2023-01-27T00:51:01.263Z,100727.46
2023-01-27T00:53:35.331Z,100731.50
2023-01-27T00:56:10.076Z,100732.59
2023-01-27T00:58:44.476Z,100729.36
2023-01-27T01:01:20.951Z,100726.81
2023-01-27T01:03:54.936Z,100727.09
2023-01-27T01:06:28.543Z,100726.94
2023-01-27T01:09:02.285Z,100730.41
2023-01-27T01:11:36.191Z,100728.67
2023-01-27T01:14:09.909Z,100726.33
2023-01-27T01:16:43.665Z,100729.32
2023-01-27T01:19:17.670Z,100729.36
2023-01-27T01:21:51.319Z,100730.95
2023-01-27T01:24:25.205Z,100731.36
2023-01-27T01:26:58.622Z,100732.96
2023-01-27T01:29:32.561Z,100734.00
2023-01-27T01:32:10.210Z,100729.30
2023-01-27T01:34:44.946Z,100726.11
2023-01-27T01:37:18.994Z,100723.85
2023-01-27T01:39:52.781Z,100725.35
2023-01-27T01:42:26.328Z,100727.61
2023-01-27T01:45:30.746Z,100728.35
2023-01-27T01:48:09.054Z,100727.84
2023-01-27T01:50:46.441Z,100728.88
2023-01-27T01:53:20.692Z,100730.48
2023-01-27T01:55:54.172Z,100731.37
2023-01-27T01:58:29.629Z,100731.52
2023-01-27T02:01:07.577Z,100727.64
2023-01-27T02:03:45.311Z,100730.03
2023-01-27T02:06:19.380Z,100729.23
2023-01-27T02:08:55.994Z,100726.54
2023-01-27T02:11:30.193Z,100724.27
2023-01-27T02:14:05.708Z,100727.84
2023-01-27T02:16:41.804Z,100725.62
2023-01-27T02:19:25.500Z,100728.30
2023-01-27T02:22:02.193Z,100729.15
2023-01-27T02:24:46.885Z,100731.54
2023-01-27T02:27:20.628Z,100731.67
2023-01-27T02:29:54.226Z,100729.61
2023-01-27T02:32:28.971Z,100731.16
2023-01-27T02:35:03.836Z,100735.36
2023-01-27T02:37:37.862Z,100734.84
2023-01-27T02:40:15.667Z,100737.54
2023-01-27T02:42:49.837Z,100735.77
2023-01-27T02:45:23.257Z,100730.92
2023-01-27T02:47:56.856Z,100729.13
2023-01-27T02:50:30.978Z,100728.75
2023-01-27T02:53:04.828Z,100732.19
2023-01-27T02:55:38.566Z,100733.55
2023-01-27T02:58:12.266Z,100733.91
2023-01-27T03:00:54.302Z,100727.46
2023-01-27T03:03:28.249Z,100725.55
2023-01-27T03:06:05.363Z,100729.85
2023-01-27T03:08:39.867Z,100732.92
2023-01-27T03:11:14.011Z,100735.61
2023-01-27T03:13:47.851Z,100734.58
2023-01-27T03:16:39.890Z,100734.02
2023-01-27T03:19:14.224Z,100733.08
2023-01-27T03:21:51.443Z,100733.73
2023-01-27T03:24:25.896Z,100735.45
2023-01-27T03:26:59.876Z,100738.96
2023-01-27T03:29:58.398Z,100739.74
2023-01-27T03:32:34.129Z,100734.47
2023-01-27T03:35:39.662Z,100735.92
2023-01-27T03:38:35.285Z,100739.96
2023-01-27T03:41:26.872Z,100739.41
2023-01-27T03:44:18.312Z,100739.17
2023-01-27T03:46:53.158Z,100740.69
2023-01-27T03:49:27.188Z,100740.27
2023-01-27T03:52:01.060Z,100737.27
2023-01-27T03:54:35.010Z,100739.20
2023-01-27T03:57:08.863Z,100739.09
2023-01-27T03:59:42.439Z,100739.36
2023-01-27T04:02:33.604Z,100741.95
2023-01-27T04:05:26.472Z,100746.32
2023-01-27T04:08:00.672Z,100753.98
2023-01-27T04:10:34.076Z,100756.45
2023-01-27T04:13:08.166Z,100758.52
2023-01-27T04:15:42.164Z,100758.97
2023-01-27T04:18:16.457Z,100761.11
2023-01-27T04:20:50.458Z,100761.34
2023-01-27T04:23:24.200Z,100760.56
2023-01-27T04:26:00.726Z,100763.45
2023-01-27T04:28:43.871Z,100758.54
2023-01-27T04:31:19.979Z,100757.04
2023-01-27T04:33:53.878Z,100761.42
2023-01-27T04:36:27.912Z,100763.34
2023-01-27T04:39:01.617Z,100756.73
2023-01-27T04:41:35.774Z,100756.66
2023-01-27T04:44:10.595Z,100757.31
2023-01-27T04:46:44.237Z,100756.70
2023-01-27T04:49:18.473Z,100755.02
2023-01-27T04:51:52.370Z,100750.25
2023-01-27T04:54:26.151Z,100754.13
2023-01-27T04:57:03.772Z,100757.73
2023-01-27T04:59:37.681Z,100763.40
2023-01-27T05:02:11.830Z,100766.95
2023-01-27T05:04:45.604Z,100773.49
2023-01-27T05:07:19.345Z,100777.42
2023-01-27T05:09:52.889Z,100781.90
2023-01-27T05:12:27.108Z,100781.13
2023-01-27T05:15:01.232Z,100780.05
2023-01-27T05:17:36.668Z,100786.31
2023-01-27T05:20:12.275Z,100787.54
2023-01-27T05:22:45.857Z,100787.22
2023-01-27T05:25:19.863Z,100790.51
2023-01-27T05:27:55.409Z,100791.52
2023-01-27T05:30:29.161Z,100794.02
2023-01-27T05:33:02.814Z,100795.63
2023-01-27T05:35:37.893Z,100798.17
2023-01-27T05:38:11.962Z,100799.71
2023-01-27T05:40:45.838Z,100800.02
2023-01-27T05:43:19.414Z,100800.34
2023-01-27T05:45:53.295Z,100804.50
2023-01-27T05:48:27.046Z,100805.06
2023-01-27T05:51:01.180Z,100808.99
2023-01-27T05:53:34.807Z,100803.28
2023-01-27T05:56:10.914Z,100802.98
2023-01-27T05:58:44.824Z,100802.00
2023-01-27T06:01:20.428Z,100804.91
2023-01-27T06:03:54.691Z,100803.69
2023-01-27T06:06:31.253Z,100810.05
2023-01-27T06:09:05.403Z,100809.95
2023-01-27T06:11:39.360Z,100812.42
2023-01-27T06:14:13.470Z,100814.05
2023-01-27T06:16:47.773Z,100820.74
2023-01-27T06:19:21.535Z,100826.02
2023-01-27T06:21:55.275Z,100830.29
2023-01-27T06:24:29.137Z,100831.69
2023-01-27T06:27:05.465Z,100836.67
2023-01-27T06:29:39.247Z,100839.66
2023-01-27T06:32:12.767Z,100843.92
2023-01-27T06:34:46.688Z,100845.95
2023-01-27T06:37:20.334Z,100844.81
2023-01-27T06:39:54.266Z,100847.89
2023-01-27T06:42:29.437Z,100846.69
2023-01-27T06:45:03.227Z,100853.10
2023-01-27T06:47:36.525Z,100855.08
2023-01-27T06:50:12.889Z,100857.62
2023-01-27T06:52:46.616Z,100856.99
2023-01-27T06:55:20.895Z,100852.75
2023-01-27T06:57:54.741Z,100851.73
2023-01-27T07:00:28.828Z,100853.62
2023-01-27T07:03:03.417Z,100856.86
2023-01-27T07:05:37.653Z,100856.47
2023-01-27T07:08:11.782Z,100855.43
2023-01-27T07:10:45.815Z,100853.76
2023-01-27T07:13:20.417Z,100855.04
2023-01-27T07:15:59.094Z,100856.71
2023-01-27T07:18:32.905Z,100856.98
2023-01-27T07:21:07.544Z,100856.91
2023-01-27T07:23:41.414Z,100856.56
2023-01-27T07:26:24.570Z,100857.52
2023-01-27T07:28:59.396Z,100859.23
2023-01-27T07:31:35.040Z,100857.87
2023-01-27T07:34:09.072Z,100860.52
2023-01-27T07:36:42.909Z,100856.95
2023-01-27T07:39:16.889Z,100858.73
2023-01-27T07:41:51.833Z,100863.56
2023-01-27T07:44:26.743Z,100859.46
2023-01-27T07:47:02.174Z,100862.33
2023-01-27T07:49:36.095Z,100861.10
2023-01-27T07:52:10.175Z,100859.66
2023-01-27T07:54:44.302Z,100863.27
2023-01-27T07:57:18.294Z,100866.75
2023-01-27T07:59:56.149Z,100867.58
2023-01-27T08:02:32.054Z,100865.45
2023-01-27T08:05:07.540Z,100866.11
2023-01-27T08:07:41.353Z,100865.08
2023-01-27T08:10:16.481Z,100866.62
2023-01-27T08:12:50.815Z,100861.53
2023-01-27T08:15:24.695Z,100864.98
2023-01-27T08:17:59.382Z,100861.39
2023-01-27T08:20:33.612Z,100866.66
2023-01-27T08:23:07.835Z,100862.23
2023-01-27T08:25:41.790Z,100867.73
2023-01-27T08:28:15.450Z,100870.73
2023-01-27T08:30:52.518Z,100874.83
2023-01-27T08:33:27.473Z,100872.52
2023-01-27T08:36:06.974Z,100868.40
2023-01-27T08:38:41.559Z,100870.71
2023-01-27T08:41:17.524Z,100871.90
2023-01-27T08:43:51.916Z,100871.58
2023-01-27T08:46:25.591Z,100875.69
2023-01-27T08:48:59.294Z,100877.77
2023-01-27T08:51:33.556Z,100877.84
2023-01-27T08:54:07.753Z,100876.83
2023-01-27T08:56:41.769Z,100878.77
2023-01-27T08:59:15.463Z,100883.70
2023-01-27T09:01:49.308Z,100882.59
2023-01-27T09:04:23.497Z,100888.92
2023-01-27T09:06:57.827Z,100890.02
2023-01-27T09:09:31.992Z,100891.69
2023-01-27T09:12:05.617Z,100891.88
2023-01-27T09:14:40.484Z,100892.46
2023-01-27T09:17:17.707Z,100889.63
2023-01-27T09:19:51.396Z,100888.78
2023-01-27T09:22:25.012Z,100889.30
2023-01-27T09:24:58.687Z,100883.15
2023-01-27T09:27:39.097Z,100883.08
2023-01-27T09:30:17.116Z,100883.58
2023-01-27T09:32:51.374Z,100881.46
2023-01-27T09:35:25.801Z,100879.93
2023-01-27T09:38:01.252Z,100874.59
2023-01-27T09:40:40.588Z,100873.86
2023-01-27T09:44:05.733Z,100872.61
2023-01-27T09:46:53.272Z,100874.88
2023-01-27T09:49:54.283Z,100879.52
2023-01-27T09:52:48.729Z,100879.48
2023-01-27T09:55:32.681Z,100872.06
2023-01-27T09:58:16.321Z,100868.30
2023-01-27T10:01:07.061Z,100874.27
2023-01-27T10:04:04.206Z,100875.15
2023-01-27T10:06:48.362Z,100874.73
2023-01-27T10:09:42.608Z,100872.08
2023-01-27T10:12:30.260Z,100873.61
2023-01-27T10:15:17.024Z,100879.75
2023-01-27T10:18:02.807Z,100876.63
2023-01-27T10:20:48.131Z,100877.23
2023-01-27T10:23:33.381Z,100883.58
2023-01-27T10:26:19.857Z,100889.93
2023-01-27T10:28:59.619Z,100892.77
2023-01-27T10:31:44.296Z,100896.27
2023-01-27T10:34:29.672Z,100903.23
2023-01-27T10:37:19.308Z,100906.12
2023-01-27T10:40:02.592Z,100903.89
2023-01-27T10:42:43.158Z,100901.02
2023-01-27T10:45:36.407Z,100904.04
2023-01-27T10:48:26.000Z,100910.30
2023-01-27T10:51:05.280Z,100912.11
2023-01-27T10:53:50.367Z,100908.55
2023-01-27T10:56:34.008Z,100914.75
2023-01-27T10:59:13.163Z,100920.38
2023-01-27T11:01:53.201Z,100918.23
2023-01-27T11:04:35.146Z,100917.36
2023-01-27T11:07:09.475Z,100916.48
2023-01-27T11:09:50.273Z,100916.85
2023-01-27T11:12:31.203Z,100911.88
2023-01-27T11:15:12.442Z,100909.70
2023-01-27T11:17:50.683Z,100907.25
2023-01-27T11:20:32.339Z,100906.33
2023-01-27T11:23:15.686Z,100905.76
2023-01-27T11:25:55.712Z,100898.25
2023-01-27T11:28:40.078Z,100894.91
2023-01-27T11:31:32.650Z,100893.02
2023-01-27T11:34:13.705Z,100889.94
2023-01-27T11:36:49.739Z,100888.06
2023-01-27T11:39:24.620Z,100890.38
2023-01-27T11:41:59.064Z,100890.08
2023-01-27T11:44:36.525Z,100890.31
2023-01-27T11:47:16.229Z,100887.87
2023-01-27T11:49:53.838Z,100888.77
2023-01-27T11:52:29.630Z,100884.93
2023-01-27T11:55:07.260Z,100886.58
2023-01-27T11:57:46.422Z,100889.75
2023-01-27T12:00:27.174Z,100890.31
2023-01-27T12:03:09.693Z,100889.63
2023-01-27T12:05:49.029Z,100886.69
2023-01-27T12:08:40.146Z,100885.36
2023-01-27T12:11:25.742Z,100884.00
2023-01-27T12:14:02.097Z,100883.27
2023-01-27T12:16:50.997Z,100883.26
2023-01-27T12:19:30.114Z,100889.84
2023-01-27T12:22:10.960Z,100889.14
2023-01-27T12:24:51.886Z,100885.63
2023-01-27T12:27:42.205Z,100887.00
2023-01-27T12:30:24.763Z,100882.91
2023-01-27T12:32:59.867Z,100882.23
2023-01-27T12:35:38.147Z,100881.92
2023-01-27T12:38:20.626Z,100882.64
2023-01-27T12:41:03.112Z,100881.92
2023-01-27T12:43:55.107Z,100880.42
2023-01-27T12:46:30.138Z,100883.68
2023-01-27T12:49:11.629Z,100884.94
2023-01-27T12:51:52.452Z,100887.66
2023-01-27T12:54:28.675Z,100889.27
2023-01-27T12:57:06.571Z,100893.02
2023-01-27T12:59:50.568Z,100893.07
2023-01-27T13:02:27.960Z,100895.67
2023-01-27T13:05:05.294Z,100893.00
2023-01-27T13:07:46.306Z,100894.35
2023-01-27T13:10:24.852Z,100894.95
2023-01-27T13:13:01.276Z,100894.66
2023-01-27T13:15:35.492Z,100889.31
2023-01-27T13:18:23.456Z,100887.84
2023-01-27T13:21:11.982Z,100886.86
2023-01-27T13:23:50.246Z,100886.76
2023-01-27T13:26:29.020Z,100889.70
2023-01-27T13:29:12.064Z,100890.97
2023-01-27T13:31:51.295Z,100889.34
2023-01-27T13:34:34.113Z,100893.74
2023-01-27T13:37:14.521Z,100897.63
2023-01-27T13:40:01.391Z,100895.83
2023-01-27T13:42:42.139Z,100896.84
2023-01-27T13:45:20.648Z,100893.23
2023-01-27T13:47:58.939Z,100896.02
2023-01-27T13:50:37.946Z,100901.91
2023-01-27T13:53:16.198Z,100905.85
2023-01-27T13:56:05.707Z,100907.69
2023-01-27T13:58:52.324Z,100910.59
2023-01-27T14:01:33.870Z,100914.05
2023-01-27T14:04:40.424Z,100913.21
2023-01-27T14:07:27.606Z,100916.73
2023-01-27T14:10:17.390Z,100917.33
2023-01-27T14:13:05.467Z,100918.46
2023-01-27T14:15:46.000Z,100918.91
2023-01-27T14:18:24.745Z,100923.30
2023-01-27T14:21:15.286Z,100925.02
2023-01-27T14:24:01.816Z,100925.70
2023-01-27T14:26:52.647Z,100926.17
2023-01-27T14:29:38.316Z,100924.63
2023-01-27T14:32:24.119Z,100923.11
2023-01-27T14:35:18.693Z,100923.66
2023-01-27T14:38:07.226Z,100917.02
2023-01-27T14:40:48.610Z,100920.62
2023-01-27T14:43:36.929Z,100921.27
2023-01-27T14:46:21.605Z,100920.86
2023-01-27T14:49:05.449Z,100920.27
2023-01-27T14:51:45.959Z,100920.04
2023-01-27T14:54:36.294Z,100920.88
2023-01-27T14:57:25.719Z,100923.85
2023-01-27T15:00:18.905Z,100924.28
2023-01-27T15:03:03.440Z,100924.61
2023-01-27T15:05:45.975Z,100929.58
2023-01-27T15:08:30.244Z,100929.17
2023-01-27T15:11:24.383Z,100930.15
2023-01-27T15:14:17.185Z,100935.02
2023-01-27T15:17:04.845Z,100934.30
2023-01-27T15:20:02.062Z,100934.98
2023-01-27T15:23:06.760Z,100928.04
2023-01-27T15:25:44.803Z,100922.91
2023-01-27T15:28:24.860Z,100929.45
2023-01-27T15:31:23.496Z,100932.89
2023-01-27T15:34:16.413Z,100937.75
2023-01-27T15:37:05.463Z,100941.91
2023-01-27T15:40:05.492Z,100945.02
2023-01-27T15:42:54.319Z,100944.02
2023-01-27T15:45:30.562Z,100941.83
2023-01-27T15:48:09.052Z,100947.71
2023-01-27T15:50:49.023Z,100949.50
2023-01-27T15:53:31.675Z,100949.31
2023-01-27T15:56:06.142Z,100952.78
2023-01-27T15:58:46.234Z,100955.66
2023-01-27T16:01:31.580Z,100954.64
2023-01-27T16:04:20.125Z,100956.83
2023-01-27T16:07:02.682Z,100953.94
2023-01-27T16:09:42.209Z,100955.39
2023-01-27T16:12:42.667Z,100960.51
2023-01-27T16:15:39.304Z,100957.20
2023-01-27T16:18:43.698Z,100962.13
2023-01-27T16:21:37.190Z,100962.52
2023-01-27T16:24:20.892Z,100967.70
2023-01-27T16:26:59.722Z,100968.91
2023-01-27T16:29:40.467Z,100970.23
2023-01-27T16:32:21.129Z,100971.24
2023-01-27T16:34:59.265Z,100969.13
2023-01-27T16:37:35.133Z,100969.60
2023-01-27T16:40:17.645Z,100972.05
2023-01-27T16:42:59.056Z,100969.84
2023-01-27T16:45:45.257Z,100974.61
2023-01-27T16:48:29.709Z,100976.34
2023-01-27T16:51:17.043Z,100978.34
2023-01-27T16:53:53.506Z,100981.17
2023-01-27T16:56:31.537Z,100977.68
2023-01-27T16:59:06.195Z,100980.35
2023-01-27T17:01:47.385Z,100980.34
2023-01-27T17:04:26.340Z,100977.27
2023-01-27T17:07:09.901Z,100981.25
2023-01-27T17:09:53.706Z,100982.70
2023-01-27T17:12:32.434Z,100981.38
2023-01-27T17:15:23.744Z,100982.02
2023-01-27T17:18:01.135Z,100980.14
2023-01-27T17:20:40.826Z,100978.46
2023-01-27T17:23:24.993Z,100978.99
2023-01-27T17:26:04.878Z,100982.27
2023-01-27T17:28:39.823Z,100988.74
2023-01-27T17:31:23.876Z,100988.75
2023-01-27T17:34:02.923Z,100987.82
2023-01-27T17:36:36.967Z,100990.14
2023-01-27T17:39:33.075Z,100990.09
2023-01-27T17:42:09.306Z,100991.92
2023-01-27T17:44:45.053Z,100991.89
2023-01-27T17:47:22.271Z,100992.65
2023-01-27T17:49:56.576Z,100995.33
2023-01-27T17:52:32.170Z,100993.55
2023-01-27T17:55:17.163Z,100992.29
2023-01-27T17:57:56.219Z,100994.27
2023-01-27T18:00:35.151Z,100996.17
2023-01-27T18:03:16.401Z,100995.08
2023-01-27T18:05:54.785Z,101001.05
2023-01-27T18:08:29.253Z,101004.98
2023-01-27T18:11:22.732Z,101006.41
2023-01-27T18:13:58.733Z,101003.85
2023-01-27T18:16:38.284Z,101004.41
2023-01-27T18:19:25.853Z,101004.59
2023-01-27T18:22:16.648Z,101004.61
2023-01-27T18:25:00.684Z,101002.88
2023-01-27T18:27:38.749Z,101001.89
2023-01-27T18:30:20.145Z,101003.64
2023-01-27T18:33:02.269Z,101006.80
2023-01-27T18:35:40.054Z,101010.05
2023-01-27T18:38:29.007Z,101009.89
2023-01-27T18:41:25.357Z,101014.45
2023-01-27T18:44:03.592Z,101016.74
2023-01-27T18:46:41.965Z,101020.37
2023-01-27T18:49:17.277Z,101022.02
2023-01-27T18:51:56.425Z,101025.35
2023-01-27T18:54:32.662Z,101029.29
2023-01-27T18:57:08.065Z,101030.66
2023-01-27T18:59:45.510Z,101032.84
2023-01-27T19:02:22.191Z,101034.80
2023-01-27T19:05:02.044Z,101038.70
2023-01-27T19:07:40.483Z,101041.69
2023-01-27T19:10:21.127Z,101046.75
2023-01-27T19:13:03.117Z,101047.84
2023-01-27T19:15:49.204Z,101050.33
2023-01-27T19:18:28.757Z,101049.69
2023-01-27T19:21:10.420Z,101050.17
2023-01-27T19:23:50.075Z,101052.59
2023-01-27T19:26:26.316Z,101055.66
2023-01-27T19:29:02.425Z,101056.52
2023-01-27T19:31:38.333Z,101059.30
2023-01-27T19:34:15.989Z,101062.09
2023-01-27T19:36:51.016Z,101069.73
2023-01-27T19:39:27.295Z,101071.10
2023-01-27T19:42:03.555Z,101071.88
2023-01-27T19:44:40.640Z,101070.60
2023-01-27T19:47:18.955Z,101070.48
2023-01-27T19:49:55.043Z,101072.91
2023-01-27T19:52:31.791Z,101075.11
2023-01-27T19:55:07.469Z,101074.27
2023-01-27T19:57:50.373Z,101074.90
2023-01-27T20:00:30.968Z,101075.58
2023-01-27T20:03:09.995Z,101077.61
2023-01-27T20:05:46.877Z,101075.86
2023-01-27T20:08:24.477Z,101075.15
2023-01-27T20:11:01.577Z,101082.27
2023-01-27T20:13:38.231Z,101089.95
2023-01-27T20:16:17.314Z,101091.18
2023-01-27T20:18:58.880Z,101095.04
2023-01-27T20:21:38.552Z,101098.15
2023-01-27T20:24:20.385Z,101098.65
2023-01-27T20:26:58.518Z,101100.36
2023-01-27T20:29:37.478Z,101100.81
2023-01-27T20:32:15.081Z,101101.50
2023-01-27T20:34:51.407Z,101102.33
2023-01-27T20:37:30.999Z,101103.41
2023-01-27T20:40:11.279Z,101107.50
2023-01-27T20:42:49.670Z,101108.23
2023-01-27T20:45:29.163Z,101107.67
2023-01-27T20:48:09.318Z,101105.02
2023-01-27T20:50:46.736Z,101107.96
2023-01-27T20:53:32.822Z,101107.34
2023-01-27T20:56:09.308Z,101107.73
2023-01-27T20:58:46.260Z,101107.27
2023-01-27T21:01:26.979Z,101107.21
2023-01-27T21:04:02.237Z,101107.10
2023-01-27T21:06:40.090Z,101106.44
2023-01-27T21:09:15.798Z,101103.91
2023-01-27T21:11:54.030Z,101106.58
2023-01-27T21:14:29.451Z,101106.77
2023-01-27T21:17:07.758Z,101108.73
2023-01-27T21:19:41.623Z,101107.88
2023-01-27T21:22:17.519Z,101103.15
2023-01-27T21:24:53.901Z,101103.70
2023-01-27T21:27:30.803Z,101105.20
2023-01-27T21:30:05.937Z,101106.28
2023-01-27T21:32:42.411Z,101108.62
2023-01-27T21:35:18.726Z,101107.66
2023-01-27T21:37:55.396Z,101100.30
2023-01-27T21:40:35.224Z,101102.02
2023-01-27T21:43:28.984Z,101099.44
2023-01-27T21:46:03.807Z,101098.30
2023-01-27T21:48:38.201Z,101099.94
2023-01-27T21:51:13.683Z,101094.33
2023-01-27T21:53:48.275Z,101095.47
2023-01-27T21:56:24.267Z,101096.48
2023-01-27T21:58:59.893Z,101095.80
2023-01-27T22:01:34.881Z,101089.95
2023-01-27T22:04:09.411Z,101087.02
2023-01-27T22:06:43.303Z,101086.34
2023-01-27T22:09:17.827Z,101085.24
2023-01-27T22:11:51.307Z,101085.79
2023-01-27T22:14:25.752Z,101082.85
2023-01-27T22:16:59.681Z,101076.27
2023-01-27T22:19:33.398Z,101076.25
2023-01-27T22:22:08.109Z,101075.33
2023-01-27T22:24:42.170Z,101072.19
2023-01-27T22:27:16.152Z,101072.27
2023-01-27T22:29:50.654Z,101079.27
2023-01-27T22:32:24.543Z,101081.46
2023-01-27T22:34:58.560Z,101078.48
2023-01-27T22:37:32.635Z,101080.85
2023-01-27T22:40:08.078Z,101082.43
2023-01-27T22:42:41.888Z,101083.48
2023-01-27T22:45:16.188Z,101080.16
2023-01-27T22:47:50.822Z,101080.04
2023-01-27T22:50:24.755Z,101082.34
2023-01-27T22:52:58.636Z,101077.27
2023-01-27T22:55:32.524Z,101072.27
2023-01-27T22:58:06.272Z,101072.45
2023-01-27T23:00:40.208Z,101074.19
2023-01-27T23:03:14.360Z,101070.56
2023-01-27T23:05:48.233Z,101068.32
2023-01-27T23:08:22.130Z,101067.14
2023-01-27T23:11:01.352Z,101064.20
2023-01-27T23:13:36.516Z,101065.98
2023-01-27T23:16:11.108Z,101065.69
2023-01-27T23:18:44.671Z,101067.29
2023-01-27T23:21:18.727Z,101070.09
2023-01-27T23:23:53.526Z,101065.44
2023-01-27T23:26:27.652Z,101062.67
2023-01-27T23:29:01.671Z,101061.98
2023-01-27T23:31:35.553Z,101059.60
2023-01-27T23:34:09.126Z,101059.98
2023-01-27T23:36:43.258Z,101062.59
2023-01-27T23:39:18.607Z,101062.03
2023-01-27T23:41:52.503Z,101061.70
2023-01-27T23:44:26.368Z,101060.23
2023-01-27T23:46:59.963Z,101054.95
2023-01-27T23:49:33.901Z,101057.00
2023-01-27T23:52:08.059Z,101059.48
2023-01-27T23:54:42.007Z,101058.13
2023-01-27T23:57:15.544Z,101059.43
2023-01-27T23:59:49.539Z,101063.25
